createdAt,value
2023-05-18T00:00:46.817Z,14.83
2023-05-18T00:03:15.235Z,14.85
2023-05-18T00:05:43.957Z,14.86
2023-05-18T00:08:12.331Z,14.87
2023-05-18T00:10:40.782Z,14.88
2023-05-18T00:13:09.727Z,14.88
2023-05-18T00:15:38.145Z,14.89
2023-05-18T00:18:08.679Z,14.89
2023-05-18T00:20:37.736Z,14.89
2023-05-18T00:23:06.295Z,14.87
2023-05-18T00:25:34.753Z,14.87
2023-05-18T00:28:03.154Z,14.87
2023-05-18T00:30:34.410Z,14.85
2023-05-18T00:33:02.944Z,14.86
2023-05-18T00:35:32.854Z,14.84
2023-05-18T00:38:01.347Z,14.86
2023-05-18T00:40:30.617Z,14.85
2023-05-18T00:43:00.685Z,14.85
2023-05-18T00:45:29.455Z,14.84
2023-05-18T00:47:58.139Z,14.84
2023-05-18T00:50:26.835Z,14.83
2023-05-18T00:52:56.589Z,14.81
2023-05-18T00:55:25.278Z,14.81
2023-05-18T00:57:56.465Z,14.80
2023-05-18T01:00:25.397Z,14.81
2023-05-18T01:02:53.836Z,14.80
2023-05-18T01:05:22.556Z,14.80
2023-05-18T01:07:51.546Z,14.82
2023-05-18T01:10:21.844Z,14.81
2023-05-18T01:12:55.116Z,14.82
2023-05-18T01:15:32.583Z,14.81
2023-05-18T01:18:14.865Z,14.81
2023-05-18T01:20:50.812Z,14.81
2023-05-18T01:23:55.016Z,14.78
2023-05-18T01:26:31.657Z,14.78
2023-05-18T01:29:02.867Z,14.79
2023-05-18T01:31:31.875Z,14.78
2023-05-18T01:34:00.605Z,14.80
2023-05-18T01:36:29.124Z,14.81
2023-05-18T01:39:01.600Z,14.82
2023-05-18T01:41:36.471Z,14.83
2023-05-18T01:44:15.204Z,14.82
2023-05-18T01:46:58.325Z,14.83
2023-05-18T01:49:44.393Z,14.82
2023-05-18T01:52:19.393Z,14.83
2023-05-18T01:54:54.184Z,14.81
2023-05-18T01:57:29.124Z,14.81
2023-05-18T02:00:00.179Z,14.82
2023-05-18T02:02:29.701Z,14.81
2023-05-18T02:04:58.316Z,14.78
2023-05-18T02:07:27.090Z,14.80
2023-05-18T02:09:56.014Z,14.78
2023-05-18T02:12:25.813Z,14.79
2023-05-18T02:14:55.374Z,14.81
2023-05-18T02:17:26.396Z,14.81
2023-05-18T02:19:56.411Z,14.81
2023-05-18T02:22:24.819Z,14.81
2023-05-18T02:24:53.975Z,14.81
2023-05-18T02:27:22.374Z,14.80
2023-05-18T02:29:52.638Z,14.78
2023-05-18T02:32:21.455Z,14.77
2023-05-18T02:34:53.959Z,14.77
2023-05-18T02:37:23.329Z,14.77
2023-05-18T02:39:51.844Z,14.78
2023-05-18T02:42:20.219Z,14.78
2023-05-18T02:44:48.621Z,14.77
2023-05-18T02:47:18.448Z,14.77
2023-05-18T02:49:46.792Z,14.76
2023-05-18T02:52:15.244Z,14.78
2023-05-18T02:54:43.586Z,14.77
2023-05-18T02:57:13.991Z,14.77
2023-05-18T02:59:43.621Z,14.75
2023-05-18T03:02:14.499Z,14.74
2023-05-18T03:04:44.360Z,14.73
2023-05-18T03:07:12.823Z,14.74
2023-05-18T03:09:41.253Z,14.73
2023-05-18T03:12:10.734Z,14.74
2023-05-18T03:14:39.050Z,14.75
2023-05-18T03:17:07.648Z,14.75
2023-05-18T03:19:36.164Z,14.77
2023-05-18T03:22:06.352Z,14.78
2023-05-18T03:24:40.751Z,14.79
2023-05-18T03:27:09.248Z,14.81
2023-05-18T03:29:37.766Z,14.83
2023-05-18T03:32:06.942Z,14.84
2023-05-18T03:34:35.387Z,14.87
2023-05-18T03:37:05.183Z,14.88
2023-05-18T03:39:33.552Z,14.88
2023-05-18T03:42:02.065Z,14.89
2023-05-18T03:44:30.908Z,14.88
2023-05-18T03:46:59.368Z,14.88
2023-05-18T03:49:29.761Z,14.88
2023-05-18T03:51:58.119Z,14.92
2023-05-18T03:54:27.861Z,14.92
2023-05-18T03:56:56.421Z,14.92
2023-05-18T03:59:24.881Z,14.94
2023-05-18T04:01:54.246Z,14.96
2023-05-18T04:04:23.624Z,14.97
2023-05-18T04:06:52.612Z,15.00
2023-05-18T04:09:23.886Z,15.01
2023-05-18T04:11:53.697Z,15.04
2023-05-18T04:14:24.709Z,15.06
2023-05-18T04:16:53.691Z,15.08
2023-05-18T04:19:23.087Z,15.10
2023-05-18T04:21:51.703Z,15.13
2023-05-18T04:24:21.375Z,15.15
2023-05-18T04:26:49.792Z,15.17
2023-05-18T04:29:19.634Z,15.19
2023-05-18T04:31:48.961Z,15.21
2023-05-18T04:34:19.236Z,15.23
2023-05-18T04:36:47.649Z,15.22
2023-05-18T04:39:16.044Z,15.21
2023-05-18T04:41:44.429Z,15.23
2023-05-18T04:44:14.185Z,15.22
2023-05-18T04:46:47.400Z,15.22
2023-05-18T04:49:15.958Z,15.23
2023-05-18T04:51:44.366Z,15.24
2023-05-18T04:54:13.128Z,15.24
2023-05-18T04:56:41.584Z,15.23
2023-05-18T04:59:10.905Z,15.23
2023-05-18T05:01:39.496Z,15.22
2023-05-18T05:04:09.362Z,15.23
2023-05-18T05:06:37.780Z,15.25
2023-05-18T05:09:06.513Z,15.28
2023-05-18T05:11:34.973Z,15.29
2023-05-18T05:14:03.801Z,15.30
2023-05-18T05:16:32.602Z,15.33
2023-05-18T05:19:01.256Z,15.36
2023-05-18T05:21:31.539Z,15.38
2023-05-18T05:24:01.761Z,15.41
2023-05-18T05:26:30.193Z,15.42
2023-05-18T05:28:58.634Z,15.47
2023-05-18T05:31:27.051Z,15.49
2023-05-18T05:33:55.547Z,15.53
2023-05-18T05:36:23.938Z,15.53
2023-05-18T05:38:53.725Z,15.52
2023-05-18T05:41:23.211Z,15.52
2023-05-18T05:43:51.610Z,15.54
2023-05-18T05:46:20.047Z,15.55
2023-05-18T05:48:48.475Z,15.57
2023-05-18T05:51:17.471Z,15.59
2023-05-18T05:53:47.612Z,15.62
2023-05-18T05:56:17.565Z,15.64
2023-05-18T05:58:46.153Z,15.66
2023-05-18T06:01:14.569Z,15.67
2023-05-18T06:03:45.252Z,15.68
2023-05-18T06:06:14.707Z,15.70
2023-05-18T06:08:43.410Z,15.72
2023-05-18T06:11:13.016Z,15.74
2023-05-18T06:13:42.723Z,15.76
2023-05-18T06:16:11.192Z,15.80
2023-05-18T06:18:39.649Z,15.81
2023-05-18T06:21:08.233Z,15.83
2023-05-18T06:23:37.840Z,15.86
2023-05-18T06:26:07.316Z,15.87
2023-05-18T06:28:35.725Z,15.89
2023-05-18T06:31:05.699Z,15.90
2023-05-18T06:33:34.568Z,15.92
2023-05-18T06:36:03.030Z,15.93
2023-05-18T06:38:31.489Z,15.97
2023-05-18T06:40:59.877Z,15.95
2023-05-18T06:43:28.753Z,15.96
2023-05-18T06:45:57.524Z,15.97
2023-05-18T06:48:29.533Z,15.98
2023-05-18T06:50:57.903Z,16.01
2023-05-18T06:53:26.431Z,16.01
2023-05-18T06:55:54.901Z,15.99
2023-05-18T06:58:23.834Z,15.98
2023-05-18T07:00:54.228Z,15.98
2023-05-18T07:03:23.207Z,15.99
2023-05-18T07:05:53.040Z,16.01
2023-05-18T07:08:22.297Z,16.02
2023-05-18T07:10:50.682Z,16.02
2023-05-18T07:13:20.525Z,16.03
2023-05-18T07:15:48.981Z,16.03
2023-05-18T07:18:17.605Z,16.03
2023-05-18T07:20:46.014Z,16.02
2023-05-18T07:23:16.000Z,16.02
2023-05-18T07:25:44.494Z,16.03
2023-05-18T07:28:12.996Z,16.04
2023-05-18T07:30:41.651Z,16.03
2023-05-18T07:33:10.198Z,16.03
2023-05-18T07:35:38.681Z,16.03
2023-05-18T07:38:07.079Z,16.06
2023-05-18T07:40:36.902Z,16.07
2023-05-18T07:43:05.331Z,16.07
2023-05-18T07:45:34.157Z,16.11
2023-05-18T07:48:02.829Z,16.14
2023-05-18T07:50:31.445Z,16.13
2023-05-18T07:52:59.857Z,16.18
2023-05-18T07:55:28.452Z,16.22
2023-05-18T07:58:01.025Z,16.26
2023-05-18T08:00:29.649Z,16.28
2023-05-18T08:02:58.281Z,16.28
2023-05-18T08:05:26.832Z,16.31
2023-05-18T08:07:55.464Z,16.32
2023-05-18T08:10:24.165Z,16.34
2023-05-18T08:12:53.190Z,16.34
2023-05-18T08:15:23.335Z,16.34
2023-05-18T08:17:52.402Z,16.37
2023-05-18T08:20:21.050Z,16.39
2023-05-18T08:22:49.571Z,16.41
2023-05-18T08:25:18.108Z,16.43
2023-05-18T08:27:46.542Z,16.42
2023-05-18T08:30:16.135Z,16.45
2023-05-18T08:32:46.098Z,16.46
2023-05-18T08:35:14.701Z,16.49
2023-05-18T08:37:43.265Z,16.51
2023-05-18T08:40:13.411Z,16.50
2023-05-18T08:42:50.734Z,16.50
2023-05-18T08:45:30.373Z,16.50
2023-05-18T08:48:02.387Z,16.56
2023-05-18T08:50:33.894Z,16.60
2023-05-18T08:53:06.171Z,16.63
2023-05-18T08:55:36.958Z,16.67
2023-05-18T08:58:08.359Z,16.69
2023-05-18T09:00:37.005Z,16.72
2023-05-18T09:03:08.292Z,16.77
2023-05-18T09:05:37.360Z,16.82
2023-05-18T09:08:08.612Z,16.85
2023-05-18T09:10:37.785Z,16.87
2023-05-18T09:13:07.594Z,16.88
2023-05-18T09:15:36.365Z,16.87
2023-05-18T09:18:06.349Z,16.82
2023-05-18T09:20:34.869Z,16.83
2023-05-18T09:23:03.729Z,16.83
2023-05-18T09:25:35.818Z,16.84
2023-05-18T09:28:05.182Z,16.85
2023-05-18T09:30:42.581Z,16.81
2023-05-18T09:33:19.512Z,16.81
2023-05-18T09:35:48.265Z,16.84
2023-05-18T09:38:21.948Z,16.84
2023-05-18T09:40:52.271Z,16.85
2023-05-18T09:43:21.372Z,16.89
2023-05-18T09:45:51.164Z,16.92
2023-05-18T09:48:24.253Z,16.94
2023-05-18T09:50:53.787Z,16.94
2023-05-18T09:53:22.317Z,16.96
2023-05-18T09:55:51.517Z,16.97
2023-05-18T09:58:19.981Z,16.99
2023-05-18T10:00:51.905Z,17.02
2023-05-18T10:03:24.105Z,17.07
2023-05-18T10:05:53.173Z,17.12
2023-05-18T10:08:21.654Z,17.14
2023-05-18T10:10:51.475Z,17.14
2023-05-18T10:13:20.995Z,17.14
2023-05-18T10:15:52.044Z,17.14
2023-05-18T10:18:25.757Z,17.16
2023-05-18T10:20:59.194Z,17.19
2023-05-18T10:23:32.037Z,17.20
2023-05-18T10:26:01.063Z,17.22
2023-05-18T10:28:34.068Z,17.25
2023-05-18T10:31:02.681Z,17.31
2023-05-18T10:33:33.267Z,17.31
2023-05-18T10:36:05.512Z,17.31
2023-05-18T10:38:38.869Z,17.33
2023-05-18T10:41:08.897Z,17.39
2023-05-18T10:43:38.678Z,17.41
2023-05-18T10:46:08.740Z,17.44
2023-05-18T10:48:41.431Z,17.45
2023-05-18T10:51:10.268Z,17.47
2023-05-18T10:53:39.263Z,17.48
2023-05-18T10:56:09.090Z,17.51
2023-05-18T10:58:39.785Z,17.53
2023-05-18T11:01:12.629Z,17.56
2023-05-18T11:03:42.736Z,17.58
2023-05-18T11:06:13.068Z,17.61
2023-05-18T11:08:47.643Z,17.66
2023-05-18T11:11:19.242Z,17.72
2023-05-18T11:13:52.344Z,17.76
2023-05-18T11:16:21.775Z,17.79
2023-05-18T11:18:54.328Z,17.80
2023-05-18T11:21:52.764Z,17.78
2023-05-18T11:24:25.063Z,17.82
2023-05-18T11:26:55.671Z,17.84
2023-05-18T11:29:31.171Z,17.87
2023-05-18T11:32:01.309Z,17.90
2023-05-18T11:34:45.322Z,17.91
2023-05-18T11:37:16.292Z,17.92
2023-05-18T11:40:00.454Z,17.95
2023-05-18T11:42:35.098Z,17.99
2023-05-18T11:45:09.010Z,18.01
2023-05-18T11:47:39.980Z,18.02
2023-05-18T11:50:12.799Z,18.08
2023-05-18T11:52:49.018Z,18.11
2023-05-18T11:55:20.652Z,18.10
2023-05-18T11:57:53.470Z,18.11
2023-05-18T12:00:22.759Z,18.11
2023-05-18T12:02:52.604Z,18.09
2023-05-18T12:05:23.070Z,18.08
2023-05-18T12:07:54.871Z,18.11
2023-05-18T12:10:25.045Z,18.12
2023-05-18T12:12:54.492Z,18.13
2023-05-18T12:15:25.008Z,18.13
2023-05-18T12:17:54.276Z,18.15
2023-05-18T12:20:26.742Z,18.15
2023-05-18T12:22:57.068Z,18.16
2023-05-18T12:25:28.134Z,18.18
2023-05-18T12:27:57.819Z,18.22
2023-05-18T12:30:35.040Z,18.28
2023-05-18T12:33:04.905Z,18.31
2023-05-18T12:35:35.088Z,18.35
2023-05-18T12:38:03.807Z,18.40
2023-05-18T12:40:44.475Z,18.41
2023-05-18T12:43:13.728Z,18.45
2023-05-18T12:45:45.551Z,18.49
2023-05-18T12:48:15.175Z,18.50
2023-05-18T12:50:50.385Z,18.52
2023-05-18T12:53:19.805Z,18.54
2023-05-18T12:55:58.837Z,18.55
2023-05-18T12:58:27.464Z,18.58
2023-05-18T13:00:55.967Z,18.60
2023-05-18T13:03:24.634Z,18.57
2023-05-18T13:06:06.943Z,18.50
2023-05-18T13:08:37.841Z,18.50
2023-05-18T13:11:13.506Z,18.51
2023-05-18T13:14:04.703Z,18.49
2023-05-18T13:16:38.841Z,18.51
2023-05-18T13:19:10.231Z,18.52
2023-05-18T13:21:40.469Z,18.53
2023-05-18T13:24:09.347Z,18.53
2023-05-18T13:26:37.828Z,18.56
2023-05-18T13:29:08.655Z,18.59
2023-05-18T13:31:37.244Z,18.64
2023-05-18T13:34:05.804Z,18.66
2023-05-18T13:36:36.182Z,18.68
2023-05-18T13:39:07.411Z,18.69
2023-05-18T13:41:36.606Z,18.71
2023-05-18T13:44:05.364Z,18.70
2023-05-18T13:46:34.021Z,18.71
2023-05-18T13:49:02.577Z,18.77
2023-05-18T13:51:31.460Z,18.82
2023-05-18T13:53:59.917Z,18.84
2023-05-18T13:56:29.817Z,18.82
2023-05-18T13:58:58.183Z,18.79
2023-05-18T14:01:27.018Z,18.73
2023-05-18T14:03:55.473Z,18.67
2023-05-18T14:06:24.056Z,18.61
2023-05-18T14:08:52.487Z,18.56
2023-05-18T14:11:21.700Z,18.50
2023-05-18T14:13:51.561Z,18.49
2023-05-18T14:16:19.989Z,18.48
2023-05-18T14:18:49.291Z,18.52
2023-05-18T14:21:17.823Z,18.58
2023-05-18T14:23:47.765Z,18.63
2023-05-18T14:26:16.223Z,18.67
2023-05-18T14:28:44.658Z,18.70
2023-05-18T14:31:14.590Z,18.72
2023-05-18T14:33:43.067Z,18.74
2023-05-18T14:36:11.542Z,18.77
2023-05-18T14:38:39.977Z,18.82
2023-05-18T14:41:08.350Z,18.87
2023-05-18T14:43:36.918Z,18.87
2023-05-18T14:46:08.593Z,18.89
2023-05-18T14:48:39.100Z,18.90
2023-05-18T14:51:07.683Z,18.93
2023-05-18T14:53:36.157Z,18.92
2023-05-18T14:56:08.537Z,18.93
2023-05-18T14:58:37.401Z,18.96
2023-05-18T15:01:06.254Z,18.98
2023-05-18T15:03:34.864Z,18.99
2023-05-18T15:06:05.282Z,18.98
2023-05-18T15:08:33.956Z,18.97
2023-05-18T15:11:02.393Z,18.92
2023-05-18T15:13:30.925Z,18.91
2023-05-18T15:15:59.454Z,18.90
2023-05-18T15:18:27.972Z,18.92
2023-05-18T15:20:56.441Z,18.96
2023-05-18T15:23:27.017Z,18.95
2023-05-18T15:25:55.813Z,18.94
2023-05-18T15:28:24.254Z,18.91
2023-05-18T15:30:54.491Z,18.90
2023-05-18T15:33:23.485Z,18.88
2023-05-18T15:35:51.959Z,18.87
2023-05-18T15:38:20.328Z,18.84
2023-05-18T15:40:51.201Z,18.83
2023-05-18T15:43:20.302Z,18.82
2023-05-18T15:45:48.927Z,18.80
2023-05-18T15:48:17.402Z,18.75
2023-05-18T15:50:46.324Z,18.72
2023-05-18T15:53:15.956Z,18.69
2023-05-18T15:55:44.469Z,18.64
2023-05-18T15:58:14.797Z,18.58
2023-05-18T16:00:43.383Z,18.53
2023-05-18T16:03:12.579Z,18.53
2023-05-18T16:05:41.302Z,18.50
2023-05-18T16:08:09.736Z,18.46
2023-05-18T16:10:38.154Z,18.45
2023-05-18T16:13:06.744Z,18.44
2023-05-18T16:15:37.357Z,18.43
2023-05-18T16:18:06.647Z,18.42
2023-05-18T16:20:35.369Z,18.41
2023-05-18T16:23:03.997Z,18.40
2023-05-18T16:25:32.793Z,18.35
2023-05-18T16:28:01.319Z,18.32
2023-05-18T16:30:30.225Z,18.30
2023-05-18T16:33:00.498Z,18.28
2023-05-18T16:35:30.988Z,18.27
2023-05-18T16:37:59.492Z,18.27
2023-05-18T16:40:27.927Z,18.22
2023-05-18T16:42:56.310Z,18.19
2023-05-18T16:45:25.792Z,18.15
2023-05-18T16:47:55.618Z,18.15
2023-05-18T16:50:27.840Z,18.13
2023-05-18T16:52:56.357Z,18.14
2023-05-18T16:55:25.112Z,18.14
2023-05-18T16:57:54.065Z,18.14
2023-05-18T17:00:23.108Z,18.14
2023-05-18T17:02:52.795Z,18.14
2023-05-18T17:05:23.056Z,18.12
2023-05-18T17:07:53.961Z,18.13
2023-05-18T17:10:22.887Z,18.13
2023-05-18T17:12:51.821Z,18.13
2023-05-18T17:15:20.578Z,18.10
2023-05-18T17:17:49.048Z,18.08
2023-05-18T17:20:17.636Z,18.05
2023-05-18T17:22:46.096Z,18.03
2023-05-18T17:25:16.005Z,18.02
2023-05-18T17:27:44.519Z,18.00
2023-05-18T17:30:13.554Z,17.96
2023-05-18T17:32:42.173Z,17.93
2023-05-18T17:35:13.947Z,17.91
2023-05-18T17:37:42.839Z,17.87
2023-05-18T17:40:12.575Z,17.86
2023-05-18T17:42:42.257Z,17.85
2023-05-18T17:45:12.229Z,17.83
2023-05-18T17:47:41.714Z,17.82
2023-05-18T17:50:13.364Z,17.83
2023-05-18T17:52:41.768Z,17.83
2023-05-18T17:55:10.851Z,17.81
2023-05-18T17:57:45.052Z,17.81
2023-05-18T18:00:17.745Z,17.80
2023-05-18T18:02:46.539Z,17.79
2023-05-18T18:05:15.112Z,17.77
2023-05-18T18:07:43.549Z,17.76
2023-05-18T18:10:12.728Z,17.75
2023-05-18T18:12:41.337Z,17.74
2023-05-18T18:15:11.402Z,17.73
2023-05-18T18:17:41.413Z,17.70
2023-05-18T18:20:12.199Z,17.68
2023-05-18T18:22:40.759Z,17.67
2023-05-18T18:25:09.933Z,17.65
2023-05-18T18:27:38.564Z,17.62
2023-05-18T18:30:08.864Z,17.60
2023-05-18T18:32:37.785Z,17.57
2023-05-18T18:35:09.197Z,17.54
2023-05-18T18:37:38.380Z,17.51
2023-05-18T18:40:10.730Z,17.49
2023-05-18T18:42:39.654Z,17.50
2023-05-18T18:45:10.547Z,17.48
2023-05-18T18:47:40.071Z,17.48
2023-05-18T18:50:11.857Z,17.47
2023-05-18T18:52:40.758Z,17.46
2023-05-18T18:55:10.734Z,17.45
2023-05-18T18:57:40.084Z,17.43
2023-05-18T19:00:12.040Z,17.42
2023-05-18T19:02:40.763Z,17.41
2023-05-18T19:05:12.687Z,17.39
2023-05-18T19:07:41.852Z,17.41
2023-05-18T19:10:11.317Z,17.38
2023-05-18T19:12:39.941Z,17.38
2023-05-18T19:15:10.754Z,17.36
2023-05-18T19:17:39.351Z,17.35
2023-05-18T19:20:12.099Z,17.32
2023-05-18T19:22:40.546Z,17.32
2023-05-18T19:25:10.366Z,17.30
2023-05-18T19:27:39.157Z,17.27
2023-05-18T19:30:11.005Z,17.25
2023-05-18T19:32:40.873Z,17.23
2023-05-18T19:35:11.234Z,17.20
2023-05-18T19:37:39.851Z,17.18
2023-05-18T19:40:09.764Z,17.17
2023-05-18T19:42:38.426Z,17.12
2023-05-18T19:45:08.145Z,17.10
2023-05-18T19:47:37.008Z,17.09
2023-05-18T19:50:07.286Z,17.07
2023-05-18T19:52:37.420Z,17.05
2023-05-18T19:55:07.307Z,17.02
2023-05-18T19:57:36.207Z,16.98
2023-05-18T20:00:05.696Z,16.94
2023-05-18T20:02:34.233Z,16.92
2023-05-18T20:05:04.151Z,16.89
2023-05-18T20:07:33.540Z,16.88
2023-05-18T20:10:03.521Z,16.86
2023-05-18T20:12:32.273Z,16.86
2023-05-18T20:15:00.938Z,16.87
2023-05-18T20:17:29.525Z,16.87
2023-05-18T20:19:58.098Z,16.87
2023-05-18T20:22:26.705Z,16.88
2023-05-18T20:24:55.562Z,16.87
2023-05-18T20:27:25.418Z,16.85
2023-05-18T20:29:54.501Z,16.86
2023-05-18T20:32:23.274Z,16.86
2023-05-18T20:34:51.776Z,16.86
2023-05-18T20:37:20.641Z,16.85
2023-05-18T20:39:50.955Z,16.84
2023-05-18T20:42:22.356Z,16.82
2023-05-18T20:44:53.580Z,16.81
2023-05-18T20:47:22.035Z,16.82
2023-05-18T20:49:52.091Z,16.82
2023-05-18T20:52:20.722Z,16.85
2023-05-18T20:54:49.151Z,16.84
2023-05-18T20:57:17.736Z,16.83
2023-05-18T20:59:48.553Z,16.83
2023-05-18T21:02:19.655Z,16.82
2023-05-18T21:04:48.071Z,16.84
2023-05-18T21:07:18.139Z,16.84
2023-05-18T21:09:46.592Z,16.85
2023-05-18T21:12:15.078Z,16.85
2023-05-18T21:14:43.572Z,16.88
2023-05-18T21:17:12.109Z,16.90
2023-05-18T21:19:41.927Z,16.91
2023-05-18T21:22:11.839Z,16.91
2023-05-18T21:24:40.296Z,16.91
2023-05-18T21:27:09.164Z,16.91
2023-05-18T21:29:37.695Z,16.89
2023-05-18T21:32:06.578Z,16.90
2023-05-18T21:34:35.176Z,16.90
2023-05-18T21:37:05.325Z,16.89
2023-05-18T21:39:33.733Z,16.89
2023-05-18T21:42:02.662Z,16.89
2023-05-18T21:44:31.244Z,16.88
2023-05-18T21:46:59.647Z,16.88
2023-05-18T21:49:28.015Z,16.89
2023-05-18T21:51:58.196Z,16.90
2023-05-18T21:54:32.087Z,16.90
2023-05-18T21:57:01.421Z,16.89
2023-05-18T21:59:29.910Z,16.90
2023-05-18T22:01:58.332Z,16.92
2023-05-18T22:04:26.934Z,16.92
2023-05-18T22:06:55.516Z,16.93
2023-05-18T22:09:23.902Z,16.93
2023-05-18T22:11:53.729Z,16.94
2023-05-18T22:14:22.207Z,16.92
2023-05-18T22:16:50.699Z,16.90
2023-05-18T22:19:19.237Z,16.88
2023-05-18T22:21:47.704Z,16.85
2023-05-18T22:24:16.633Z,16.83
2023-05-18T22:26:45.156Z,16.81
2023-05-18T22:29:15.080Z,16.79
2023-05-18T22:31:43.512Z,16.78
2023-05-18T22:34:12.037Z,16.78
2023-05-18T22:36:40.468Z,16.79
2023-05-18T22:39:11.015Z,16.79
2023-05-18T22:41:39.454Z,16.80
2023-05-18T22:44:07.813Z,16.78
2023-05-18T22:46:39.723Z,16.76
2023-05-18T22:49:08.115Z,16.78
2023-05-18T22:51:36.437Z,16.77
2023-05-18T22:54:04.976Z,16.78
2023-05-18T22:56:33.385Z,16.78
2023-05-18T22:59:02.209Z,16.77
2023-05-18T23:01:31.346Z,16.76
2023-05-18T23:04:01.254Z,16.76
2023-05-18T23:06:31.702Z,16.73
2023-05-18T23:09:00.853Z,16.72
2023-05-18T23:11:31.026Z,16.70
2023-05-18T23:14:02.893Z,16.68
2023-05-18T23:16:31.413Z,16.66
2023-05-18T23:19:02.231Z,16.65
2023-05-18T23:21:31.801Z,16.64
2023-05-18T23:24:01.184Z,16.61
2023-05-18T23:26:29.678Z,16.61
2023-05-18T23:28:58.072Z,16.61
2023-05-18T23:31:26.853Z,16.61
2023-05-18T23:33:56.155Z,16.61
2023-05-18T23:36:27.473Z,16.61
2023-05-18T23:38:59.060Z,16.61
2023-05-18T23:41:29.713Z,16.59
2023-05-18T23:43:59.134Z,16.60
2023-05-18T23:46:28.401Z,16.59
2023-05-18T23:48:59.812Z,16.57
2023-05-18T23:51:33.497Z,16.56
2023-05-18T23:54:04.181Z,16.54
2023-05-18T23:56:34.336Z,16.53
2023-05-18T23:59:03.483Z,16.51
